Time;durP1;ratioP1;P1;durP2;ratioP2;P2;SDS_P1;SDS_P2;PMS_P1;PMS_P2;Temp;Humidity;BMP_temperature;BMP_pressure;BME280_temperature;BME280_humidity;BME280_pressure;Samples;Min_cycle;Max_cycle;Signal;HPM_P1;HPM_P2
2023/10/04 00:00:18;;;;;;;7.30;2.20;;;12.90;99.90;;;;;;5111017;27;20127;-80
2023/10/04 00:02:50;;;;;;;7.72;2.42;;;13.00;99.90;;;;;;5110179;27;20042;-79
2023/10/04 00:05:16;;;;;;;6.88;2.03;;;13.00;99.90;;;;;;5107024;27;20684;-80
2023/10/04 00:07:47;;;;;;;8.18;2.40;;;13.00;99.90;;;;;;5127079;27;20039;-80
2023/10/04 00:10:14;;;;;;;7.93;2.08;;;13.00;99.90;;;;;;5110333;27;20104;-80
2023/10/04 00:12:44;;;;;;;8.40;2.15;;;13.00;99.90;;;;;;5123740;27;20141;-80
2023/10/04 00:15:13;;;;;;;7.43;2.35;;;13.00;99.90;;;;;;5123540;27;20130;-80
2023/10/04 00:17:43;;;;;;;10.77;2.55;;;13.00;99.90;;;;;;5106813;27;20311;-80
2023/10/04 00:20:16;;;;;;;9.60;2.55;;;13.10;99.90;;;;;;5128136;27;20143;-80
2023/10/04 00:22:43;;;;;;;6.45;1.80;;;13.10;99.90;;;;;;5113245;27;20127;-80
2023/10/04 00:25:21;;;;;;;9.05;2.53;;;13.10;99.90;;;;;;5131694;27;20087;-80
2023/10/04 00:27:52;;;;;;;8.57;2.20;;;13.00;99.90;;;;;;5127931;27;20049;-80
2023/10/04 00:30:18;;;;;;;8.82;2.60;;;13.00;99.90;;;;;;5108707;27;20148;-79
2023/10/04 00:32:49;;;;;;;7.93;2.50;;;13.00;99.90;;;;;;5127525;27;20047;-79
2023/10/04 00:35:19;;;;;;;7.63;2.22;;;13.00;99.90;;;;;;5129257;27;20031;-79
2023/10/04 00:37:51;;;;;;;;;;;13.00;99.90;;;;;;5124082;27;20091;-80
2023/10/04 00:40:26;;;;;;;9.00;2.35;;;12.90;99.90;;;;;;5128207;27;19919;-80
2023/10/04 00:42:56;;;;;;;8.43;2.35;;;12.90;99.90;;;;;;5129738;27;20414;-80
2023/10/04 00:45:22;;;;;;;7.75;2.25;;;12.90;99.90;;;;;;5123356;27;20047;-80
2023/10/04 00:47:56;;;;;;;8.90;2.38;;;12.90;99.90;;;;;;5122503;27;20051;-80
2023/10/04 00:50:31;;;;;;;7.70;1.88;;;12.90;99.90;;;;;;5117026;27;20039;-80
2023/10/04 00:53:06;;;;;;;12.68;2.97;;;12.90;99.90;;;;;;5129434;27;20043;-80
2023/10/04 00:55:34;;;;;;;8.07;2.05;;;12.80;99.90;;;;;;5114164;27;20104;-80
2023/10/04 00:58:05;;;;;;;9.68;2.38;;;12.80;99.90;;;;;;5127084;27;20109;-79
2023/10/04 01:00:31;;;;;;;8.60;2.42;;;12.80;99.90;;;;;;5129071;27;20099;-79
2023/10/04 01:02:57;;;;;;;7.65;2.33;;;12.70;99.90;;;;;;5126935;27;20050;-79
2023/10/04 01:05:26;;;;;;;7.53;2.35;;;12.70;99.90;;;;;;5126043;27;20511;-78
2023/10/04 01:07:53;;;;;;;10.63;2.65;;;12.70;99.90;;;;;;5123704;27;20035;-79
2023/10/04 01:10:21;;;;;;;9.30;2.20;;;12.70;99.90;;;;;;5124633;27;20039;-79
2023/10/04 01:12:51;;;;;;;10.23;2.78;;;12.70;99.90;;;;;;5112626;27;20058;-79
2023/10/04 01:15:59;;;;;;;10.25;2.75;;;12.80;99.90;;;;;;5126323;27;20039;-79
2023/10/04 01:18:09;;;;;;;9.60;2.20;;;12.80;99.90;;;;;;5121810;27;20039;-79
2023/10/04 01:20:37;;;;;;;9.70;2.92;;;12.70;99.90;;;;;;5109862;27;20047;-80
2023/10/04 01:23:05;;;;;;;12.45;2.60;;;12.80;99.90;;;;;;5112094;27;20034;-79
2023/10/04 01:25:33;;;;;;;10.43;2.45;;;12.80;99.90;;;;;;5110125;27;20047;-80
2023/10/04 01:28:01;;;;;;;10.18;2.22;;;12.80;99.90;;;;;;5129742;27;20137;-80
2023/10/04 01:30:29;;;;;;;11.05;2.85;;;12.80;99.90;;;;;;5111113;27;20035;-80
2023/10/04 01:32:55;;;;;;;7.35;2.20;;;12.80;99.90;;;;;;5121914;27;20047;-80
2023/10/04 01:35:24;;;;;;;12.90;2.97;;;12.70;99.90;;;;;;5128831;27;20165;-80
2023/10/04 01:37:54;;;;;;;7.90;2.20;;;12.70;99.90;;;;;;5127580;27;20130;-80
2023/10/04 01:40:25;;;;;;;10.07;2.38;;;12.70;99.90;;;;;;5112589;27;20047;-80
2023/10/04 01:42:54;;;;;;;11.18;2.88;;;12.70;99.90;;;;;;5110824;27;20401;-80
2023/10/04 01:45:21;;;;;;;7.72;2.45;;;12.70;99.90;;;;;;5107422;27;20043;-80
2023/10/04 01:47:47;;;;;;;13.45;3.40;;;12.70;99.90;;;;;;5100633;27;20053;-80
2023/10/04 01:50:24;;;;;;;9.45;2.65;;;12.70;99.90;;;;;;5103797;27;20118;-81
2023/10/04 01:52:50;;;;;;;8.00;2.45;;;12.70;99.90;;;;;;5107667;27;20031;-80
2023/10/04 01:55:17;;;;;;;12.45;2.80;;;12.70;99.90;;;;;;5119393;27;20057;-80
2023/10/04 01:57:43;;;;;;;10.70;2.70;;;12.70;99.90;;;;;;5121919;27;20059;-80
2023/10/04 02:00:14;;;;;;;10.10;2.53;;;12.70;99.90;;;;;;5108636;27;20825;-79
2023/10/04 02:02:40;;;;;;;11.20;2.42;;;12.70;99.90;;;;;;5111731;27;20039;-81
2023/10/04 02:05:10;;;;;;;12.75;2.72;;;12.60;99.90;;;;;;5107971;27;20050;-80
2023/10/04 02:07:39;;;;;;;10.75;2.60;;;12.70;99.90;;;;;;5116518;27;20046;-80
2023/10/04 02:10:17;;;;;;;14.18;2.33;;;12.60;99.90;;;;;;5107894;27;20055;-80
2023/10/04 02:12:43;;;;;;;8.60;2.13;;;12.60;99.90;;;;;;5125272;27;20075;-79
2023/10/04 02:15:16;;;;;;;10.70;2.70;;;12.60;99.90;;;;;;5106034;27;20082;-81
2023/10/04 02:17:45;;;;;;;11.05;2.88;;;12.70;99.90;;;;;;5129008;27;20112;-80
2023/10/04 02:20:21;;;;;;;9.05;2.50;;;12.60;99.90;;;;;;5111026;27;20117;-80
2023/10/04 02:22:47;;;;;;;8.63;2.53;;;12.60;99.90;;;;;;5112437;27;20039;-80
2023/10/04 02:25:14;;;;;;;12.35;2.35;;;12.70;99.90;;;;;;5128508;27;20050;-80
2023/10/04 02:27:44;;;;;;;15.13;2.92;;;12.70;99.90;;;;;;5127234;27;20035;-80
2023/10/04 02:30:21;;;;;;;10.35;2.58;;;12.70;99.90;;;;;;5126262;27;20089;-81
2023/10/04 02:32:48;;;;;;;11.93;3.38;;;12.70;99.90;;;;;;5112876;27;20047;-80
2023/10/04 02:35:21;;;;;;;11.55;2.80;;;12.70;99.90;;;;;;5128193;27;20212;-81
2023/10/04 02:37:48;;;;;;;11.18;3.35;;;12.80;99.90;;;;;;5127952;27;20052;-80
2023/10/04 02:40:14;;;;;;;11.07;2.90;;;12.80;99.90;;;;;;5128793;27;20035;-80
2023/10/04 02:42:41;;;;;;;9.05;2.85;;;12.80;99.90;;;;;;5127072;27;20038;-81
2023/10/04 02:45:18;;;;;;;12.90;2.90;;;12.80;99.90;;;;;;5108290;27;20162;-80
2023/10/04 02:47:45;;;;;;;10.68;2.90;;;12.80;99.90;;;;;;5134652;27;20047;-80
2023/10/04 02:50:11;;;;;;;15.25;3.38;;;12.80;99.90;;;;;;5135180;27;20050;-80
2023/10/04 02:52:37;;;;;;;12.07;3.10;;;12.80;99.90;;;;;;5120493;27;20035;-80
2023/10/04 02:55:03;;;;;;;9.15;3.15;;;12.80;99.90;;;;;;5130858;27;20043;-80
2023/10/04 02:57:28;;;;;;;10.18;2.85;;;12.80;99.90;;;;;;5122053;27;20722;-80
2023/10/04 02:59:55;;;;;;;11.80;2.97;;;12.80;99.90;;;;;;5112257;27;20035;-80
2023/10/04 03:02:21;;;;;;;12.38;3.20;;;12.80;99.90;;;;;;5117474;27;20042;-81
2023/10/04 03:04:51;;;;;;;11.43;2.95;;;12.80;99.90;;;;;;5132207;27;20050;-80
2023/10/04 03:07:17;;;;;;;12.20;3.10;;;12.90;99.90;;;;;;5132572;27;20055;-80
2023/10/04 03:09:50;;;;;;;12.30;2.95;;;12.90;99.90;;;;;;5111468;27;20678;-80
2023/10/04 03:12:16;;;;;;;11.02;2.80;;;12.90;99.90;;;;;;5115808;27;20031;-80
2023/10/04 03:14:42;;;;;;;10.95;3.38;;;12.80;99.90;;;;;;5114120;27;20777;-80
2023/10/04 03:17:15;;;;;;;13.27;3.40;;;12.90;99.90;;;;;;5113544;27;20034;-80
2023/10/04 03:19:41;;;;;;;13.98;3.88;;;12.80;99.90;;;;;;5130296;27;20378;-80
2023/10/04 03:22:08;;;;;;;13.05;3.63;;;12.80;99.90;;;;;;5115611;27;20066;-80
2023/10/04 03:24:37;;;;;;;11.52;2.90;;;12.70;99.90;;;;;;5112324;27;20401;-80
2023/10/04 03:27:05;;;;;;;14.00;3.80;;;12.70;99.90;;;;;;5113609;27;20031;-80
2023/10/04 03:29:31;;;;;;;9.15;2.85;;;12.70;99.90;;;;;;5131815;27;20050;-80
2023/10/04 03:32:04;;;;;;;11.23;3.20;;;12.70;99.90;;;;;;5132619;27;20118;-80
2023/10/04 03:34:29;;;;;;;14.27;3.88;;;12.70;99.90;;;;;;5128502;27;20047;-80
2023/10/04 03:37:07;;;;;;;11.13;3.20;;;12.60;99.90;;;;;;5129896;27;20523;-80
2023/10/04 03:39:34;;;;;;;12.13;2.95;;;12.60;99.90;;;;;;5112838;27;20050;-81
2023/10/04 03:42:04;;;;;;;12.30;2.90;;;12.60;99.90;;;;;;5112198;27;20038;-80
2023/10/04 03:44:30;;;;;;;10.85;2.78;;;12.50;99.90;;;;;;5128178;27;20443;-81
2023/10/04 03:46:59;;;;;;;15.20;3.30;;;12.50;99.90;;;;;;5126478;27;20042;-81
2023/10/04 03:49:25;;;;;;;11.85;3.00;;;12.50;99.90;;;;;;5111696;27;20038;-80
2023/10/04 03:51:53;;;;;;;13.43;3.13;;;12.50;99.90;;;;;;5110672;27;20046;-81
2023/10/04 03:54:19;;;;;;;10.60;2.97;;;12.50;99.90;;;;;;5108911;27;20057;-80
2023/10/04 03:56:45;;;;;;;11.30;2.92;;;12.50;99.90;;;;;;5110450;27;20119;-81
2023/10/04 03:59:11;;;;;;;10.02;2.88;;;12.50;99.90;;;;;;5107626;27;20571;-80
2023/10/04 04:01:37;;;;;;;14.38;3.65;;;12.40;99.90;;;;;;5109605;27;20378;-80
2023/10/04 04:04:04;;;;;;;13.48;3.88;;;12.40;99.90;;;;;;5116937;27;20054;-80
2023/10/04 04:06:30;;;;;;;12.27;3.50;;;12.40;99.90;;;;;;5127799;27;20063;-80
2023/10/04 04:08:58;;;;;;;13.23;3.55;;;12.40;99.90;;;;;;5118279;27;20061;-80
2023/10/04 04:11:24;;;;;;;10.73;3.40;;;12.30;99.90;;;;;;5127345;27;20511;-80
2023/10/04 04:13:50;;;;;;;11.90;3.35;;;12.30;99.90;;;;;;5112169;27;20035;-80
2023/10/04 04:16:17;;;;;;;10.98;3.42;;;12.30;99.90;;;;;;5109245;27;20043;-80
2023/10/04 04:18:44;;;;;;;11.27;3.38;;;12.30;99.90;;;;;;5111754;27;20072;-80
2023/10/04 04:21:10;;;;;;;10.45;2.92;;;12.30;99.90;;;;;;5108177;27;20555;-80
2023/10/04 04:23:36;;;;;;;12.45;3.40;;;12.30;99.90;;;;;;5125345;27;20067;-80
2023/10/04 04:26:05;;;;;;;10.25;3.30;;;12.30;99.90;;;;;;5121402;27;20043;-80
2023/10/04 04:28:34;;;;;;;14.57;4.43;;;12.30;99.90;;;;;;5123863;27;20126;-80
2023/10/04 04:31:00;;;;;;;11.48;3.22;;;12.30;99.90;;;;;;5124960;27;20118;-80
2023/10/04 04:33:28;;;;;;;11.32;3.38;;;12.30;99.90;;;;;;5107553;27;20129;-80
2023/10/04 04:36:00;;;;;;;11.32;3.20;;;12.20;99.90;;;;;;5128408;27;20070;-80
2023/10/04 04:38:28;;;;;;;13.95;3.88;;;12.30;99.90;;;;;;5123730;27;20507;-80
2023/10/04 04:40:57;;;;;;;10.27;3.42;;;12.20;99.90;;;;;;5127641;27;20431;-80
2023/10/04 04:43:43;;;;;;;13.85;4.32;;;12.20;99.90;;;;;;5111922;27;20056;-80
2023/10/04 04:46:16;;;;;;;13.50;3.53;;;12.20;99.90;;;;;;5127342;27;20057;-79
2023/10/04 04:48:43;;;;;;;12.77;3.88;;;12.20;99.90;;;;;;5128325;27;20094;-80
2023/10/04 04:51:12;;;;;;;12.05;3.65;;;12.20;99.90;;;;;;5112369;27;20042;-80
2023/10/04 04:53:42;;;;;;;9.73;3.45;;;12.20;99.90;;;;;;5108152;27;20255;-79
2023/10/04 04:56:14;;;;;;;13.38;4.50;;;12.40;99.90;;;;;;5128207;27;20493;-80
2023/10/04 04:58:44;;;;;;;14.18;3.83;;;12.30;99.90;;;;;;5123161;27;20046;-80
2023/10/04 05:01:13;;;;;;;14.07;3.45;;;12.30;99.90;;;;;;5111686;27;20752;-80
2023/10/04 05:03:45;;;;;;;14.88;3.90;;;12.40;99.90;;;;;;5126705;27;20111;-80
2023/10/04 05:06:21;;;;;;;8.70;3.30;;;12.40;99.90;;;;;;5117131;27;20035;-80
2023/10/04 05:08:46;;;;;;;12.20;4.18;;;12.50;99.90;;;;;;5125500;27;20134;-80
2023/10/04 05:11:12;;;;;;;11.05;3.67;;;12.40;99.90;;;;;;5124181;27;20540;-80
2023/10/04 05:13:41;;;;;;;11.82;4.03;;;12.40;99.90;;;;;;5108951;27;20039;-80
2023/10/04 05:16:07;;;;;;;12.25;3.78;;;12.50;99.90;;;;;;5129510;27;20041;-80
2023/10/04 05:18:33;;;;;;;13.18;4.07;;;12.50;99.90;;;;;;5126440;27;20035;-80
2023/10/04 05:21:00;;;;;;;10.48;3.60;;;12.40;99.90;;;;;;5125207;27;20042;-80
2023/10/04 05:23:29;;;;;;;10.48;3.63;;;12.50;99.90;;;;;;5108583;27;20041;-80
2023/10/04 05:25:55;;;;;;;13.20;4.15;;;12.50;99.90;;;;;;5109418;27;20035;-80
2023/10/04 05:28:24;;;;;;;12.20;3.53;;;12.40;99.90;;;;;;5125353;27;21709;-80
2023/10/04 05:30:51;;;;;;;12.45;3.65;;;12.40;99.90;;;;;;5112015;27;20130;-80
2023/10/04 05:33:21;;;;;;;14.23;3.58;;;12.40;99.90;;;;;;5118243;27;20050;-83
2023/10/04 05:35:53;;;;;;;;;;;12.40;99.90;;;;;;5110826;27;20075;-82
2023/10/04 05:38:20;;;;;;;9.88;3.90;;;12.40;99.90;;;;;;5108464;27;20293;-82
2023/10/04 05:40:47;;;;;;;10.38;3.78;;;12.40;99.90;;;;;;5112112;27;20513;-82
2023/10/04 05:43:14;;;;;;;13.70;4.50;;;12.40;99.90;;;;;;5106990;27;20061;-82
2023/10/04 05:45:42;;;;;;;11.27;3.50;;;12.40;99.90;;;;;;5105420;27;20051;-82
2023/10/04 05:48:12;;;;;;;13.52;4.30;;;12.30;99.90;;;;;;5110267;27;20400;-83
2023/10/04 05:50:39;;;;;;;9.05;3.92;;;12.40;99.90;;;;;;5124153;27;20636;-82
2023/10/04 05:53:07;;;;;;;11.80;4.20;;;12.40;99.90;;;;;;5128591;27;20690;-81
2023/10/04 05:55:51;;;;;;;14.40;3.85;;;12.40;99.90;;;;;;5108702;27;21076;-82
2023/10/04 05:58:18;;;;;;;13.25;4.18;;;12.40;99.90;;;;;;5110373;27;20054;-82
2023/10/04 06:00:51;;;;;;;12.05;4.40;;;12.40;99.90;;;;;;5126380;27;20042;-82
2023/10/04 06:03:18;;;;;;;10.48;4.05;;;12.40;99.90;;;;;;5111141;27;20043;-82
2023/10/04 06:05:44;;;;;;;12.23;4.13;;;12.40;99.90;;;;;;5132889;27;20042;-82
2023/10/04 06:08:21;;;;;;;11.70;4.35;;;12.50;99.90;;;;;;5107111;27;20062;-81
2023/10/04 06:10:48;;;;;;;12.30;4.38;;;12.50;99.90;;;;;;5109315;27;20489;-83
2023/10/04 06:13:17;;;;;;;11.70;4.28;;;12.50;99.90;;;;;;5125872;27;20568;-82
2023/10/04 06:15:47;;;;;;;13.48;5.15;;;12.50;99.90;;;;;;5143027;27;20104;-81
2023/10/04 06:18:13;;;;;;;11.88;4.18;;;12.60;99.90;;;;;;5110230;27;20054;-81
2023/10/04 06:20:43;;;;;;;14.45;4.60;;;12.60;99.90;;;;;;5129957;27;20114;-82
2023/10/04 06:23:14;;;;;;;14.02;4.72;;;12.60;99.90;;;;;;5124963;27;20062;-82
2023/10/04 06:25:44;;;;;;;12.98;4.30;;;12.60;99.90;;;;;;5110868;27;20039;-82
2023/10/04 06:28:13;;;;;;;14.90;3.92;;;12.70;99.90;;;;;;5108872;27;20399;-78
2023/10/04 06:30:40;;;;;;;15.32;4.20;;;12.70;99.90;;;;;;5112345;27;20093;-78
2023/10/04 06:33:15;;;;;;;13.38;4.35;;;12.80;99.90;;;;;;5124677;27;20043;-77
2023/10/04 06:35:43;;;;;;;12.48;4.32;;;12.80;99.90;;;;;;5108210;27;20143;-78
2023/10/04 06:38:13;;;;;;;12.40;4.43;;;12.80;99.90;;;;;;5123814;27;20041;-77
2023/10/04 06:40:40;;;;;;;10.45;4.18;;;12.80;99.90;;;;;;5125288;27;20734;-78
2023/10/04 06:43:10;;;;;;;12.73;3.83;;;12.80;99.90;;;;;;5125527;27;20035;-78
2023/10/04 06:45:37;;;;;;;13.40;4.10;;;12.80;99.90;;;;;;5124855;27;20046;-78
2023/10/04 06:48:05;;;;;;;11.32;3.45;;;12.90;99.90;;;;;;5126474;27;20493;-77
2023/10/04 06:50:32;;;;;;;10.55;3.70;;;12.90;99.90;;;;;;5107040;27;20043;-77
2023/10/04 06:53:01;;;;;;;14.30;4.13;;;12.90;99.90;;;;;;5110854;27;20043;-78
2023/10/04 06:55:27;;;;;;;12.45;4.38;;;12.90;99.90;;;;;;5104492;27;20042;-77
2023/10/04 06:57:53;;;;;;;16.50;4.43;;;13.00;99.90;;;;;;5125058;27;20401;-77
2023/10/04 07:00:20;;;;;;;14.13;4.22;;;13.00;99.90;;;;;;5124468;27;20921;-78
2023/10/04 07:02:49;;;;;;;11.85;4.70;;;13.00;99.90;;;;;;5126049;27;20098;-78
2023/10/04 07:05:20;;;;;;;13.65;4.38;;;13.00;99.90;;;;;;5127365;27;20038;-82
2023/10/04 07:07:48;;;;;;;12.32;4.22;;;13.00;99.90;;;;;;5112426;27;20084;-82
2023/10/04 07:10:15;;;;;;;14.60;4.32;;;13.10;99.90;;;;;;5112917;27;20481;-83
2023/10/04 07:12:43;;;;;;;14.98;4.90;;;13.10;99.90;;;;;;5116558;27;20469;-83
2023/10/04 07:15:11;;;;;;;12.18;4.65;;;13.10;99.90;;;;;;5130785;27;20099;-83
2023/10/04 07:17:39;;;;;;;13.60;5.15;;;13.20;99.90;;;;;;5130836;27;20058;-83
2023/10/04 07:20:15;;;;;;;12.27;4.20;;;13.20;99.90;;;;;;5109679;27;20046;-83
2023/10/04 07:22:46;;;;;;;14.13;4.85;;;13.20;99.90;;;;;;5115744;27;20042;-82
2023/10/04 07:25:13;;;;;;;14.18;4.60;;;13.30;99.90;;;;;;5115364;27;20179;-82
2023/10/04 07:27:44;;;;;;;13.15;4.32;;;13.20;99.90;;;;;;5110772;27;20040;-83
2023/10/04 07:30:12;;;;;;;13.48;4.30;;;13.20;99.90;;;;;;5113174;27;20565;-77
2023/10/04 07:32:46;;;;;;;17.08;5.82;;;13.30;99.90;;;;;;5112334;27;20042;-78
2023/10/04 07:35:16;;;;;;;15.25;4.93;;;13.30;99.90;;;;;;5126239;27;20098;-77
2023/10/04 07:37:45;;;;;;;12.10;4.23;;;13.40;99.90;;;;;;5109605;27;20380;-78
2023/10/04 07:40:18;;;;;;;13.57;5.03;;;13.40;99.90;;;;;;5127727;27;20316;-77
2023/10/04 07:42:45;;;;;;;14.43;5.53;;;13.50;99.90;;;;;;5124420;27;20310;-77
2023/10/04 07:45:12;;;;;;;14.68;4.70;;;13.60;99.90;;;;;;5108892;27;20095;-81
2023/10/04 07:47:41;;;;;;;17.05;5.43;;;13.70;99.90;;;;;;5129728;27;20050;-82
2023/10/04 07:50:13;;;;;;;12.13;5.10;;;13.80;99.90;;;;;;5127006;27;20058;-82
2023/10/04 07:52:41;;;;;;;13.32;4.70;;;13.90;99.90;;;;;;5128032;27;20067;-81
2023/10/04 07:55:29;;;;;;;15.32;4.43;;;13.90;99.90;;;;;;5107737;27;20043;-81
2023/10/04 07:58:04;;;;;;;14.73;5.10;;;14.00;99.90;;;;;;5127081;27;20129;-81
2023/10/04 08:00:31;;;;;;;14.43;4.20;;;14.00;99.90;;;;;;5127614;27;20051;-80
2023/10/04 08:02:57;;;;;;;11.88;4.75;;;14.00;99.90;;;;;;5111402;27;20505;-80
2023/10/04 08:05:29;;;;;;;14.45;5.40;;;14.10;99.90;;;;;;5128531;27;20118;-81
2023/10/04 08:08:03;;;;;;;13.63;4.65;;;14.20;99.90;;;;;;5127931;27;20050;-81
2023/10/04 08:10:32;;;;;;;20.45;5.85;;;14.30;99.90;;;;;;5112055;27;20049;-81
2023/10/04 08:13:00;;;;;;;13.80;4.97;;;14.40;99.90;;;;;;5126501;27;20042;-81
2023/10/04 08:15:28;;;;;;;12.75;4.45;;;14.60;99.90;;;;;;5128391;27;20464;-80
2023/10/04 08:17:58;;;;;;;16.02;4.68;;;14.60;99.90;;;;;;5120146;27;20095;-80
2023/10/04 08:20:29;;;;;;;10.52;4.30;;;14.70;99.90;;;;;;5113426;27;20140;-80
2023/10/04 08:22:58;;;;;;;12.77;4.65;;;14.70;99.90;;;;;;5119697;27;20045;-81
2023/10/04 08:25:27;;;;;;;11.20;4.30;;;14.80;99.90;;;;;;5127111;27;20047;-81
2023/10/04 08:27:53;;;;;;;11.52;4.25;;;15.00;99.90;;;;;;5107910;27;20043;-80
2023/10/04 08:30:20;;;;;;;13.95;4.28;;;15.00;99.90;;;;;;5126143;27;20039;-80
2023/10/04 08:32:50;;;;;;;11.25;4.00;;;15.10;99.90;;;;;;5120287;27;20050;-80
2023/10/04 08:35:28;;;;;;;15.88;4.88;;;15.20;99.90;;;;;;5110037;27;20114;-80
2023/10/04 08:37:59;;;;;;;12.82;4.25;;;15.30;99.90;;;;;;5123647;27;20047;-79
2023/10/04 08:40:27;;;;;;;12.77;4.50;;;15.30;99.90;;;;;;5126954;27;20054;-79
2023/10/04 08:42:55;;;;;;;11.88;4.80;;;15.40;99.90;;;;;;5127478;27;20039;-80
2023/10/04 08:45:22;;;;;;;11.65;4.07;;;15.50;99.90;;;;;;5124472;27;20046;-79
2023/10/04 08:47:51;;;;;;;12.60;4.22;;;15.60;99.90;;;;;;5127457;27;20089;-79
2023/10/04 08:50:29;;;;;;;12.77;4.85;;;15.70;99.90;;;;;;5127102;27;20394;-79
2023/10/04 08:53:15;;;;;;;12.52;4.30;;;15.80;99.90;;;;;;5123350;27;20070;-79
2023/10/04 08:55:48;;;;;;;15.63;4.47;;;15.90;99.90;;;;;;5044110;28;20108;-79
2023/10/04 08:58:16;;;;;;;13.00;4.60;;;15.90;99.90;;;;;;5111610;27;20085;-78
2023/10/04 09:00:44;;;;;;;13.13;4.28;;;16.00;99.90;;;;;;5125097;27;20043;-79
2023/10/04 09:03:12;;;;;;;11.13;4.32;;;16.00;99.90;;;;;;5122063;27;20103;-79
2023/10/04 09:05:39;;;;;;;12.20;4.70;;;16.10;99.90;;;;;;5124810;27;20049;-79
2023/10/04 09:08:05;;;;;;;12.30;4.70;;;16.10;99.90;;;;;;5126154;27;20043;-79
2023/10/04 09:10:33;;;;;;;9.93;4.13;;;16.20;99.90;;;;;;5127028;27;20051;-78
2023/10/04 09:13:03;;;;;;;10.20;4.47;;;16.30;99.90;;;;;;5125049;27;20134;-78
2023/10/04 09:15:30;;;;;;;12.77;4.93;;;16.30;99.90;;;;;;5110064;27;20039;-78
2023/10/04 09:17:57;;;;;;;11.68;4.57;;;16.20;99.90;;;;;;5125590;27;20062;-76
2023/10/04 09:20:31;;;;;;;11.70;4.43;;;16.20;99.90;;;;;;5125691;27;20104;-78
2023/10/04 09:23:01;;;;;;;13.00;4.45;;;16.20;99.90;;;;;;5107290;27;20046;-79
2023/10/04 09:25:41;;;;;;;10.63;4.45;;;16.20;99.90;;;;;;5130157;27;20061;-78
2023/10/04 09:28:12;;;;;;;11.20;4.53;;;16.20;99.90;;;;;;5125579;27;20480;-79
2023/10/04 09:30:38;;;;;;;16.70;4.97;;;16.20;99.90;;;;;;5128842;27;20405;-78
2023/10/04 09:33:28;;;;;;;9.85;3.70;;;16.30;99.90;;;;;;5123760;27;20383;-78
2023/10/04 09:35:55;;;;;;;12.38;5.07;;;16.30;99.90;;;;;;5125477;27;20038;-78
2023/10/04 09:38:22;;;;;;;13.40;4.60;;;16.40;99.90;;;;;;5113518;27;20099;-78
2023/10/04 09:40:57;;;;;;;12.38;4.80;;;16.40;99.90;;;;;;5108967;27;20055;-76
2023/10/04 09:43:36;;;;;;;13.50;4.55;;;16.40;99.90;;;;;;5107890;27;20147;-78
2023/10/04 09:46:07;;;;;;;14.02;4.70;;;16.50;99.90;;;;;;5126566;27;20057;-78
2023/10/04 09:48:37;;;;;;;11.30;4.72;;;16.60;99.90;;;;;;5126359;27;20638;-79
2023/10/04 09:51:07;;;;;;;13.43;4.68;;;16.70;99.90;;;;;;5123460;27;20454;-74
2023/10/04 09:53:43;;;;;;;16.15;5.00;;;16.70;99.90;;;;;;5123515;27;20054;-78
2023/10/04 09:56:13;;;;;;;11.30;4.65;;;16.80;99.90;;;;;;5126605;27;20501;-77
2023/10/04 09:58:49;;;;;;;11.68;4.60;;;16.90;99.90;;;;;;5105321;27;20038;-78
2023/10/04 10:01:17;;;;;;;12.32;4.50;;;16.90;99.90;;;;;;5137156;27;20065;-77
2023/10/04 10:03:59;;;;;;;9.63;4.20;;;17.00;99.90;;;;;;5125959;27;20085;-78
2023/10/04 10:06:32;;;;;;;13.35;4.20;;;17.10;99.90;;;;;;5126113;27;20534;-78
2023/10/04 10:09:02;;;;;;;12.05;4.88;;;17.20;99.90;;;;;;5125053;27;20034;-77
2023/10/04 10:11:30;;;;;;;12.65;5.13;;;17.20;99.90;;;;;;5124899;27;20070;-78
2023/10/04 10:13:57;;;;;;;12.60;5.43;;;17.20;99.90;;;;;;5110304;27;20480;-77
2023/10/04 10:16:24;;;;;;;13.23;5.13;;;17.20;99.90;;;;;;5122622;27;21395;-78
2023/10/04 10:18:50;;;;;;;12.80;5.18;;;17.20;99.90;;;;;;5110360;27;20061;-78
2023/10/04 10:21:16;;;;;;;11.82;4.82;;;17.20;99.90;;;;;;5107916;27;20154;-77
2023/10/04 10:23:57;;;;;;;13.38;4.88;;;17.10;99.90;;;;;;5123745;27;20117;-77
2023/10/04 10:26:24;;;;;;;12.13;4.93;;;17.10;99.90;;;;;;5107250;27;20567;-77
2023/10/04 10:29:04;;;;;;;14.23;5.22;;;17.00;99.90;;;;;;5125957;27;20561;-78
2023/10/04 10:31:31;;;;;;;12.43;4.90;;;17.00;99.90;;;;;;5126315;27;20047;-77
2023/10/04 10:33:57;;;;;;;11.82;5.03;;;17.00;99.90;;;;;;5127001;27;20378;-78
2023/10/04 10:36:28;;;;;;;13.68;5.40;;;16.90;99.90;;;;;;5105619;27;20472;-78
2023/10/04 10:38:54;;;;;;;16.05;5.05;;;16.80;99.90;;;;;;5125559;27;20121;-78
2023/10/04 10:41:30;;;;;;;14.65;4.80;;;16.80;99.90;;;;;;5114187;27;20046;-78
2023/10/04 10:44:14;;;;;;;11.90;4.55;;;16.90;99.90;;;;;;5111478;27;20077;-78
2023/10/04 10:46:53;;;;;;;13.43;4.82;;;16.90;99.90;;;;;;5114367;27;20050;-76
2023/10/04 10:49:40;;;;;;;11.45;4.78;;;16.90;99.90;;;;;;5114223;27;20058;-78
2023/10/04 10:52:39;;;;;;;13.13;5.00;;;16.90;99.90;;;;;;5112018;27;20432;-78
2023/10/04 10:55:06;;;;;;;13.15;4.82;;;16.90;99.90;;;;;;5109593;27;20086;-78
2023/10/04 10:57:36;;;;;;;11.98;5.57;;;16.80;99.90;;;;;;5110381;27;20055;-78
2023/10/04 11:00:39;;;;;;;16.00;5.35;;;16.80;99.90;;;;;;5127920;27;20426;-77
2023/10/04 11:03:05;;;;;;;9.98;4.32;;;16.80;99.90;;;;;;5125143;27;20571;-78
2023/10/04 11:05:31;;;;;;;12.07;4.72;;;16.80;99.90;;;;;;5110337;27;20041;-78
2023/10/04 11:07:57;;;;;;;14.20;5.30;;;16.70;99.90;;;;;;5110248;27;20053;-78
2023/10/04 11:10:25;;;;;;;10.60;4.78;;;16.70;99.90;;;;;;5113783;27;20099;-78
2023/10/04 11:12:55;;;;;;;13.82;5.55;;;16.70;99.90;;;;;;5113768;27;20039;-78
2023/10/04 11:15:23;;;;;;;13.40;5.30;;;16.70;99.90;;;;;;5130810;27;20492;-78
2023/10/04 11:17:50;;;;;;;14.52;4.90;;;16.70;99.90;;;;;;5126422;27;20095;-78
2023/10/04 11:20:21;;;;;;;12.55;4.80;;;16.70;99.90;;;;;;5125919;27;20051;-78
2023/10/04 11:22:51;;;;;;;15.73;5.15;;;16.70;99.90;;;;;;5128035;27;20058;-78
2023/10/04 11:25:20;;;;;;;10.38;4.43;;;16.70;99.90;;;;;;5111592;27;20039;-78
2023/10/04 11:27:50;;;;;;;15.07;5.30;;;16.70;99.90;;;;;;5128245;27;20042;-78
2023/10/04 11:30:18;;;;;;;14.55;5.30;;;16.80;99.90;;;;;;5129879;27;20043;-76
2023/10/04 11:32:46;;;;;;;12.05;4.90;;;16.80;99.90;;;;;;5126752;27;20626;-77
2023/10/04 11:35:15;;;;;;;12.10;4.93;;;16.80;99.90;;;;;;5128917;27;20042;-79
2023/10/04 11:37:44;;;;;;;12.10;5.40;;;16.90;99.90;;;;;;5110713;27;20122;-78
2023/10/04 11:40:11;;;;;;;12.27;4.65;;;16.90;99.90;;;;;;5128405;27;20726;-78
2023/10/04 11:42:44;;;;;;;14.45;5.00;;;16.90;99.90;;;;;;5129186;27;20625;-76
2023/10/04 11:45:17;;;;;;;10.80;4.97;;;16.90;99.90;;;;;;5128271;27;20130;-77
2023/10/04 11:47:45;;;;;;;10.80;5.35;;;16.90;99.90;;;;;;5111184;27;20092;-77
2023/10/04 11:50:11;;;;;;;9.40;3.88;;;16.90;99.90;;;;;;5128355;27;20111;-75
2023/10/04 11:52:40;;;;;;;11.00;4.40;;;16.90;99.90;;;;;;5129848;27;20058;-78
2023/10/04 11:55:24;;;;;;;11.65;4.60;;;16.80;99.90;;;;;;5112035;27;20107;-77
2023/10/04 11:57:50;;;;;;;10.80;4.82;;;16.90;99.90;;;;;;5125644;27;20481;-78
2023/10/04 12:00:22;;;;;;;12.80;4.40;;;16.80;99.90;;;;;;5113476;27;20038;-77
2023/10/04 12:02:49;;;;;;;12.02;4.68;;;16.80;99.90;;;;;;5111516;27;20043;-77
2023/10/04 12:05:15;;;;;;;11.25;4.90;;;16.80;99.90;;;;;;5111554;27;20030;-77
2023/10/04 12:07:41;;;;;;;12.00;4.53;;;16.80;99.90;;;;;;5127563;27;20081;-77
2023/10/04 12:10:09;;;;;;;13.90;5.07;;;16.80;99.90;;;;;;5128406;27;20058;-76
2023/10/04 12:12:35;;;;;;;13.32;4.90;;;16.80;99.90;;;;;;5122808;27;20045;-76
2023/10/04 12:15:04;;;;;;;13.70;4.80;;;16.70;99.90;;;;;;5113469;27;20038;-77
2023/10/04 12:17:30;;;;;;;11.73;5.15;;;16.70;99.90;;;;;;5112154;27;20053;-77
2023/10/04 12:19:56;;;;;;;13.63;5.20;;;16.70;99.90;;;;;;5131668;27;20640;-77
2023/10/04 12:22:25;;;;;;;12.63;4.53;;;16.70;99.90;;;;;;5111625;27;20098;-77
2023/10/04 12:24:50;;;;;;;12.02;4.72;;;16.70;99.90;;;;;;5126542;27;20133;-77
2023/10/04 12:27:21;;;;;;;15.23;5.60;;;16.70;99.90;;;;;;5113007;27;20047;-77
2023/10/04 12:29:47;;;;;;;11.10;4.70;;;16.70;99.90;;;;;;5108320;27;20042;-78
2023/10/04 12:32:14;;;;;;;13.32;4.68;;;16.70;99.90;;;;;;5127469;27;20070;-78
2023/10/04 12:34:40;;;;;;;11.73;4.95;;;16.70;99.90;;;;;;5109948;27;20038;-77
2023/10/04 12:37:06;;;;;;;15.73;5.25;;;16.80;99.90;;;;;;5126917;27;20477;-76
2023/10/04 12:39:32;;;;;;;14.23;5.25;;;16.80;99.90;;;;;;5123287;27;20035;-77
2023/10/04 12:42:00;;;;;;;13.25;4.47;;;16.90;99.90;;;;;;5108269;27;20062;-75
2023/10/04 12:44:26;;;;;;;11.65;4.50;;;16.90;99.90;;;;;;5108285;27;20601;-83
2023/10/04 12:46:53;;;;;;;11.50;4.35;;;16.90;99.90;;;;;;5109328;27;20050;-82
2023/10/04 12:49:19;;;;;;;10.50;4.20;;;17.00;99.90;;;;;;5112321;27;20046;-82